ESSD/BLE METAR and TAF weather

Enter ICAO airport designator
Station Type Date Time Source
ESSD METAR 2022/06/28 09:20 UTC NOAA

ESSD 280920Z 13012KT CAVOK 26/17 Q1015


Station Type Date Time Source
ESSD Decoded METAR 2022/06/28 09:20 UTC NOAA

Borlange, Sweden (ESSD) 60-26N 015-31E 0M
Jun 28, 2022 - 05:20 AM EDT / 2022.06.28 0920 UTC
Wind: from the SE (130 degrees) at 14 MPH (12 KT):0
Visibility: greater than 7 mile(s):0
Temperature: 78 F (26 C)
Dew Point: 62 F (17 C)
Relative Humidity: 57%
Pressure (altimeter): 29.97 in. Hg (1015 hPa)
ob: ESSD 280920Z 13012KT CAVOK 26/17 Q1015
cycle: 9

Station Type Date Time Source
ESSD TAF 2022/04/07 18:36 UTC NOAA

TAF
AMD ESSD 071731Z 0718/0806 CNL

Example: see airport list